createdAt,value
2022-10-22T00:01:05.421Z,13.50
2022-10-22T00:03:38.415Z,14.30
2022-10-22T00:06:06.250Z,14.40
2022-10-22T00:08:33.857Z,13.90
2022-10-22T00:11:09.442Z,13.70
2022-10-22T00:13:37.044Z,16.80
2022-10-22T00:16:04.750Z,13.60
2022-10-22T00:18:32.486Z,13.10
2022-10-22T00:21:00.002Z,18.00
2022-10-22T00:23:27.919Z,14.20
2022-10-22T00:25:55.650Z,20.90
2022-10-22T00:28:23.986Z,14.40
2022-10-22T00:30:59.513Z,13.60
2022-10-22T00:33:28.993Z,12.70
2022-10-22T00:35:56.522Z,16.40
2022-10-22T00:38:24.215Z,14.50
2022-10-22T00:40:52.083Z,14.30
2022-10-22T00:43:20.139Z,14.60
2022-10-22T00:45:47.809Z,13.90
2022-10-22T00:48:33.677Z,13.90
2022-10-22T00:51:06.490Z,13.50
2022-10-22T00:53:46.182Z,11.00
2022-10-22T00:56:14.117Z,19.60
2022-10-22T00:58:47.417Z,17.40
2022-10-22T01:01:21.530Z,14.90
2022-10-22T01:03:49.898Z,13.50
2022-10-22T01:06:34.290Z,14.20
2022-10-22T01:09:06.567Z,14.60
2022-10-22T01:12:00.364Z,12.80
2022-10-22T01:14:36.487Z,13.00
2022-10-22T01:17:28.841Z,12.80
2022-10-22T01:20:05.319Z,14.00
2022-10-22T01:22:54.687Z,13.80
2022-10-22T01:25:35.725Z,14.60
2022-10-22T01:28:39.632Z,14.80
2022-10-22T01:31:09.343Z,14.20
2022-10-22T01:33:39.063Z,13.10
2022-10-22T01:36:08.039Z,13.00
2022-10-22T01:38:37.129Z,13.00
2022-10-22T01:41:05.612Z,12.50
2022-10-22T01:43:33.460Z,14.60
2022-10-22T01:46:04.409Z,14.30
2022-10-22T01:48:42.502Z,14.80
2022-10-22T01:51:22.533Z,14.80
2022-10-22T01:54:27.696Z,13.10
2022-10-22T01:57:01.260Z,12.30
2022-10-22T01:59:44.736Z,14.30
2022-10-22T02:02:31.438Z,14.90
2022-10-22T02:05:25.054Z,14.60
2022-10-22T02:07:59.999Z,15.30
2022-10-22T02:10:29.957Z,13.90
2022-10-22T02:13:00.287Z,15.10
2022-10-22T02:15:31.332Z,13.50
2022-10-22T02:18:00.441Z,14.40
2022-10-22T02:20:31.658Z,13.60
2022-10-22T02:23:00.862Z,13.50
2022-10-22T02:25:32.925Z,15.50
2022-10-22T02:28:32.136Z,15.20
2022-10-22T02:31:23.708Z,14.30
2022-10-22T02:33:55.935Z,13.90
2022-10-22T02:36:24.733Z,14.40
2022-10-22T02:38:53.477Z,13.60
2022-10-22T02:41:21.163Z,16.00
2022-10-22T02:43:55.299Z,14.80
2022-10-22T02:46:24.338Z,15.40
2022-10-22T02:48:51.887Z,15.00
2022-10-22T02:51:19.738Z,15.50
2022-10-22T02:53:47.295Z,14.90
2022-10-22T02:56:14.806Z,13.90
2022-10-22T02:58:42.386Z,13.80
2022-10-22T03:01:12.373Z,14.70
2022-10-22T03:03:43.058Z,15.10
2022-10-22T03:06:10.593Z,15.40
2022-10-22T03:08:38.145Z,15.20
2022-10-22T03:11:05.848Z,15.70
2022-10-22T03:13:33.473Z,14.80
2022-10-22T03:16:01.109Z,14.80
2022-10-22T03:18:28.698Z,14.70
2022-10-22T03:21:35.537Z,15.10
2022-10-22T03:24:09.108Z,15.90
2022-10-22T03:26:38.463Z,15.60
2022-10-22T03:29:06.100Z,14.50
2022-10-22T03:31:33.625Z,15.60
2022-10-22T03:34:01.290Z,15.50
2022-10-22T03:36:28.841Z,14.80
2022-10-22T03:38:56.515Z,13.90
2022-10-22T03:41:24.115Z,14.70
2022-10-22T03:43:53.175Z,13.90
2022-10-22T03:46:20.728Z,14.50
2022-10-22T03:48:48.244Z,15.30
2022-10-22T03:51:15.766Z,16.50
2022-10-22T03:53:43.283Z,16.00
2022-10-22T03:56:11.964Z,14.70
2022-10-22T03:58:40.980Z,14.20
2022-10-22T04:01:11.165Z,13.00
2022-10-22T04:03:39.374Z,15.90
2022-10-22T04:06:10.582Z,13.90
2022-10-22T04:08:43.376Z,14.70
2022-10-22T04:11:12.353Z,19.90
2022-10-22T04:13:39.897Z,16.10
2022-10-22T04:16:15.220Z,12.20
2022-10-22T04:18:44.180Z,12.30
2022-10-22T04:21:14.305Z,13.00
2022-10-22T04:23:47.205Z,12.20
2022-10-22T04:26:15.958Z,12.60
2022-10-22T04:28:43.919Z,12.60
2022-10-22T04:31:14.037Z,12.20
2022-10-22T04:33:42.098Z,12.10
2022-10-22T04:36:11.758Z,11.30
2022-10-22T04:38:40.003Z,12.50
2022-10-22T04:41:37.068Z,11.70
2022-10-22T04:44:10.941Z,14.30
2022-10-22T04:46:41.792Z,11.90
2022-10-22T04:49:09.548Z,12.70
2022-10-22T04:51:37.196Z,11.20
2022-10-22T04:54:04.885Z,10.20
2022-10-22T04:56:33.427Z,9.70
2022-10-22T04:59:05.623Z,11.20
2022-10-22T05:01:42.707Z,11.20
2022-10-22T05:04:14.348Z,11.60
2022-10-22T05:06:42.915Z,10.90
2022-10-22T05:09:17.152Z,10.60
2022-10-22T05:11:48.594Z,10.20
2022-10-22T05:14:19.761Z,10.10
2022-10-22T05:16:48.733Z,11.20
2022-10-22T05:19:25.726Z,10.80
2022-10-22T05:21:56.735Z,10.10
2022-10-22T05:24:25.599Z,10.60
2022-10-22T05:29:52.719Z,10.30
2022-10-22T05:32:20.287Z,10.30
2022-10-22T05:34:47.811Z,10.00
2022-10-22T05:37:15.342Z,10.30
2022-10-22T05:39:42.854Z,10.90
2022-10-22T05:42:10.368Z,10.20
2022-10-22T05:44:39.022Z,10.80
2022-10-22T05:47:06.597Z,10.20
2022-10-22T05:49:34.087Z,9.90
2022-10-22T05:52:01.659Z,11.10
2022-10-22T05:54:29.178Z,14.50
2022-10-22T05:56:56.734Z,22.50
2022-10-22T05:59:24.267Z,10.80
2022-10-22T06:01:51.832Z,9.40
2022-10-22T06:04:19.514Z,9.40
2022-10-22T06:06:50.163Z,10.30
2022-10-22T06:09:27.073Z,9.10
2022-10-22T06:11:55.809Z,20.70
2022-10-22T06:14:24.093Z,17.50
2022-10-22T06:16:52.379Z,34.20
2022-10-22T06:19:23.427Z,53.80
2022-10-22T06:21:50.986Z,29.20
2022-10-22T06:24:19.033Z,14.80
2022-10-22T06:26:50.818Z,17.30
2022-10-22T06:29:18.803Z,22.20
2022-10-22T06:31:46.427Z,18.30
2022-10-22T06:34:14.815Z,21.20
2022-10-22T06:36:44.821Z,20.80
2022-10-22T06:39:15.048Z,16.80
2022-10-22T06:41:42.659Z,20.30
2022-10-22T06:44:18.360Z,16.60
2022-10-22T06:46:49.076Z,24.20
2022-10-22T06:49:17.159Z,18.50
2022-10-22T06:51:44.765Z,15.90
2022-10-22T06:54:12.309Z,49.40
2022-10-22T06:56:40.221Z,38.20
2022-10-22T06:59:07.851Z,19.50
2022-10-22T07:01:36.288Z,17.30
2022-10-22T07:04:05.153Z,16.80
2022-10-22T07:06:32.901Z,25.60
2022-10-22T07:09:00.691Z,22.10
2022-10-22T07:11:31.081Z,16.10
2022-10-22T07:13:59.755Z,17.70
2022-10-22T07:16:31.047Z,23.70
2022-10-22T07:19:01.433Z,22.90
2022-10-22T07:21:29.791Z,24.10
2022-10-22T07:23:59.051Z,24.50
2022-10-22T07:26:30.856Z,19.40
2022-10-22T07:29:00.297Z,23.40
2022-10-22T07:31:28.171Z,18.60
2022-10-22T07:33:55.764Z,22.50
2022-10-22T07:36:23.503Z,26.00
2022-10-22T07:38:55.980Z,27.40
2022-10-22T07:41:23.969Z,26.40
2022-10-22T07:43:51.593Z,22.80
2022-10-22T07:46:20.251Z,23.10
2022-10-22T07:48:47.848Z,25.20
2022-10-22T07:51:16.095Z,20.40
2022-10-22T07:53:43.695Z,16.60
2022-10-22T07:56:11.549Z,16.60
2022-10-22T07:58:39.524Z,19.50
2022-10-22T08:01:07.305Z,19.40
2022-10-22T08:03:35.273Z,16.80
2022-10-22T08:06:03.011Z,21.30
2022-10-22T08:08:30.948Z,18.00
2022-10-22T08:11:01.004Z,16.70
2022-10-22T08:13:30.645Z,19.80
2022-10-22T08:16:00.273Z,17.30
2022-10-22T08:18:28.861Z,17.20
2022-10-22T08:20:56.716Z,18.70
2022-10-22T08:23:26.163Z,17.20
2022-10-22T08:25:56.898Z,16.70
2022-10-22T08:28:25.093Z,17.80
2022-10-22T08:30:52.658Z,18.60
2022-10-22T08:33:20.426Z,18.20
2022-10-22T08:35:49.937Z,18.30
2022-10-22T08:38:18.322Z,17.60
2022-10-22T08:40:50.832Z,17.10
2022-10-22T08:43:27.488Z,19.30
2022-10-22T08:46:34.218Z,21.30
2022-10-22T08:49:05.554Z,20.20
2022-10-22T08:51:36.023Z,19.40
2022-10-22T08:54:19.582Z,17.90
2022-10-22T08:56:57.832Z,15.30
2022-10-22T08:59:51.715Z,15.80
2022-10-22T09:02:51.254Z,22.80
2022-10-22T09:05:41.643Z,32.50
2022-10-22T09:08:15.974Z,26.20
2022-10-22T09:10:49.175Z,21.40
2022-10-22T09:13:20.192Z,22.30
2022-10-22T09:16:19.796Z,21.70
2022-10-22T09:18:50.319Z,24.40
2022-10-22T09:21:29.655Z,27.50
2022-10-22T09:24:04.627Z,28.30
2022-10-22T09:26:36.459Z,28.00
2022-10-22T09:29:04.465Z,29.90
2022-10-22T09:31:33.520Z,21.30
2022-10-22T09:34:06.046Z,19.80
2022-10-22T09:36:35.074Z,19.90
2022-10-22T09:39:04.149Z,16.70
2022-10-22T09:41:31.779Z,16.40
2022-10-22T09:43:59.485Z,22.80
2022-10-22T09:46:29.733Z,25.20
2022-10-22T09:49:06.631Z,20.30
2022-10-22T09:51:51.943Z,18.10
2022-10-22T09:54:21.528Z,14.60
2022-10-22T09:56:55.826Z,17.20
2022-10-22T09:59:31.135Z,18.30
2022-10-22T10:02:13.548Z,17.70
2022-10-22T10:04:53.713Z,18.20
2022-10-22T10:07:25.829Z,16.70
2022-10-22T10:09:54.422Z,14.80
2022-10-22T10:12:27.978Z,16.40
2022-10-22T10:15:18.250Z,16.70
2022-10-22T10:18:07.982Z,17.80
2022-10-22T10:20:56.552Z,18.00
2022-10-22T10:23:36.919Z,20.10
2022-10-22T10:26:34.294Z,18.00
2022-10-22T10:29:26.259Z,18.40
2022-10-22T10:32:23.563Z,18.30
2022-10-22T10:35:14.092Z,20.30
2022-10-22T10:37:49.406Z,18.20
2022-10-22T10:40:23.071Z,15.70
2022-10-22T10:42:58.656Z,19.30
2022-10-22T10:45:35.639Z,17.60
2022-10-22T10:48:19.473Z,18.30
2022-10-22T10:50:51.915Z,18.00
2022-10-22T10:53:51.459Z,17.20
2022-10-22T10:56:45.413Z,17.80
2022-10-22T10:59:39.435Z,18.60
2022-10-22T11:02:38.992Z,18.00
2022-10-22T11:05:22.514Z,18.60
2022-10-22T11:08:00.012Z,23.00
2022-10-22T11:10:33.833Z,21.30
2022-10-22T11:13:41.924Z,18.00
2022-10-22T11:16:36.657Z,22.30
2022-10-22T11:19:22.956Z,17.10
2022-10-22T11:22:30.231Z,21.70
2022-10-22T11:25:38.621Z,21.50
2022-10-22T11:30:48.066Z,25.00
2022-10-22T11:33:21.858Z,25.30
2022-10-22T11:35:51.177Z,20.30
2022-10-22T11:38:24.359Z,24.00
2022-10-22T11:41:01.758Z,21.50
2022-10-22T11:43:35.605Z,27.20
2022-10-22T11:46:28.818Z,22.10
2022-10-22T11:49:21.812Z,25.00
2022-10-22T11:51:50.334Z,24.10
2022-10-22T11:54:33.847Z,20.50
2022-10-22T11:57:34.337Z,37.60
2022-10-22T12:00:10.685Z,27.60
2022-10-22T12:02:45.923Z,24.10
2022-10-22T12:05:34.800Z,22.60
2022-10-22T12:08:16.268Z,26.00
2022-10-22T12:11:05.027Z,25.20
2022-10-22T12:13:53.233Z,31.70
2022-10-22T12:16:32.321Z,30.30
2022-10-22T12:19:26.502Z,23.20
2022-10-22T12:21:58.728Z,22.00
2022-10-22T12:24:32.344Z,25.50
2022-10-22T12:26:59.930Z,22.30
2022-10-22T12:29:28.601Z,24.30
2022-10-22T12:31:56.868Z,23.70
2022-10-22T12:34:25.386Z,19.00
2022-10-22T12:36:54.602Z,22.10
2022-10-22T12:39:27.004Z,21.10
2022-10-22T12:41:55.210Z,23.20
2022-10-22T12:44:22.745Z,22.10
2022-10-22T12:46:53.169Z,22.80
2022-10-22T12:49:31.905Z,20.40
2022-10-22T12:52:04.165Z,21.50
2022-10-22T12:54:34.423Z,22.40
2022-10-22T12:57:02.215Z,21.90
2022-10-22T12:59:35.900Z,49.50
2022-10-22T13:02:16.268Z,47.00
2022-10-22T13:05:06.980Z,20.80
2022-10-22T13:08:01.527Z,20.30
2022-10-22T13:10:35.197Z,26.20
2022-10-22T13:13:06.341Z,20.40
2022-10-22T13:15:36.758Z,19.30
2022-10-22T13:18:15.028Z,22.30
2022-10-22T13:20:55.861Z,18.40
2022-10-22T13:23:26.691Z,21.30
2022-10-22T13:26:14.839Z,18.00
2022-10-22T13:28:42.949Z,17.60
2022-10-22T13:31:25.268Z,17.60
2022-10-22T13:33:56.909Z,19.20
2022-10-22T13:36:24.796Z,18.30
2022-10-22T13:38:52.382Z,26.30
2022-10-22T13:41:28.218Z,20.90
2022-10-22T13:43:55.847Z,19.90
2022-10-22T13:46:25.015Z,26.50
2022-10-22T13:48:55.113Z,25.20
2022-10-22T13:51:27.979Z,19.40
2022-10-22T13:53:55.654Z,19.00
2022-10-22T13:56:24.005Z,15.40
2022-10-22T13:58:52.031Z,16.10
2022-10-22T14:01:28.947Z,19.10
2022-10-22T14:04:01.824Z,19.70
2022-10-22T14:06:34.140Z,15.30
2022-10-22T14:09:11.246Z,16.30
2022-10-22T14:11:38.850Z,18.00
2022-10-22T14:14:09.044Z,17.60
2022-10-22T14:16:37.562Z,18.70
2022-10-22T14:19:10.188Z,14.60
2022-10-22T14:21:38.209Z,17.60
2022-10-22T14:24:08.289Z,13.80
2022-10-22T14:26:38.341Z,14.80
2022-10-22T14:29:10.211Z,17.10
2022-10-22T14:31:44.623Z,16.10
2022-10-22T14:34:15.694Z,16.00
2022-10-22T14:36:44.033Z,19.10
2022-10-22T14:39:13.288Z,19.10
2022-10-22T14:41:41.355Z,17.70
2022-10-22T14:44:13.883Z,19.40
2022-10-22T14:46:44.419Z,19.30
2022-10-22T14:49:12.849Z,18.90
2022-10-22T14:51:40.446Z,19.60
2022-10-22T14:54:08.035Z,16.60
2022-10-22T14:59:04.996Z,18.80
2022-10-22T15:01:32.544Z,18.30
2022-10-22T15:04:00.089Z,20.90
2022-10-22T15:06:27.643Z,37.90
2022-10-22T15:08:55.196Z,25.60
2022-10-22T15:11:22.831Z,27.90
2022-10-22T15:13:50.419Z,24.70
2022-10-22T15:16:18.466Z,26.50
2022-10-22T15:18:46.043Z,40.30
2022-10-22T15:21:17.470Z,57.60
2022-10-22T15:23:45.543Z,37.80
2022-10-22T15:26:14.125Z,45.90
2022-10-22T15:28:42.170Z,23.60
2022-10-22T15:31:13.118Z,28.10
2022-10-22T15:33:42.464Z,38.00
2022-10-22T15:36:13.264Z,28.90
2022-10-22T15:38:41.482Z,35.30
2022-10-22T15:41:12.606Z,29.50
2022-10-22T15:43:40.273Z,34.10
2022-10-22T15:46:17.801Z,16.20
2022-10-22T15:48:46.308Z,25.60
2022-10-22T15:51:17.107Z,19.70
2022-10-22T15:53:50.594Z,19.10
2022-10-22T15:56:18.754Z,19.30
2022-10-22T15:58:47.779Z,25.20
2022-10-22T16:01:15.393Z,19.60
2022-10-22T16:03:43.039Z,24.10
2022-10-22T16:06:10.649Z,24.60
2022-10-22T16:08:39.038Z,22.60
2022-10-22T16:11:06.629Z,19.00
2022-10-22T16:13:36.756Z,20.90
2022-10-22T16:16:06.138Z,24.00
2022-10-22T16:18:33.766Z,29.00
2022-10-22T16:21:01.637Z,27.60
2022-10-22T16:23:29.303Z,29.30
2022-10-22T16:25:57.371Z,21.10
2022-10-22T16:28:24.908Z,29.30
2022-10-22T16:30:52.539Z,28.20
2022-10-22T16:33:20.073Z,22.30
2022-10-22T16:35:48.524Z,18.90
2022-10-22T16:38:17.425Z,19.80
2022-10-22T16:40:45.048Z,18.80
2022-10-22T16:43:12.569Z,19.10
2022-10-22T16:45:46.526Z,19.40
2022-10-22T16:48:14.183Z,17.40
2022-10-22T16:50:41.712Z,17.50
2022-10-22T16:53:09.484Z,18.70
2022-10-22T16:55:39.512Z,19.60
2022-10-22T16:58:07.057Z,19.50
2022-10-22T17:00:34.921Z,21.30
2022-10-22T17:03:02.954Z,18.90
2022-10-22T17:05:31.619Z,17.90
2022-10-22T17:07:59.126Z,14.90
2022-10-22T17:10:26.672Z,16.80
2022-10-22T17:12:54.185Z,18.30
2022-10-22T17:15:21.893Z,22.80
2022-10-22T17:17:53.604Z,25.70
2022-10-22T17:20:21.494Z,24.80
2022-10-22T17:22:49.762Z,24.70
2022-10-22T17:25:23.654Z,20.00
2022-10-22T17:27:53.981Z,22.30
2022-10-22T17:30:25.072Z,22.10
2022-10-22T17:32:55.027Z,22.00
2022-10-22T17:35:22.676Z,34.80
2022-10-22T17:37:50.376Z,25.90
2022-10-22T17:40:18.034Z,32.20
2022-10-22T17:42:45.611Z,27.60
2022-10-22T17:45:13.178Z,28.20
2022-10-22T17:47:41.235Z,23.90
2022-10-22T17:50:10.161Z,22.80
2022-10-22T17:52:37.732Z,21.20
2022-10-22T17:55:05.683Z,21.30
2022-10-22T17:57:33.223Z,28.10
2022-10-22T18:00:00.769Z,28.50
2022-10-22T18:02:30.330Z,35.60
2022-10-22T18:04:57.966Z,24.50
2022-10-22T18:07:25.503Z,20.50
2022-10-22T18:09:53.040Z,20.80
2022-10-22T18:12:20.772Z,18.60
2022-10-22T18:14:48.296Z,19.60
2022-10-22T18:17:15.900Z,18.20
2022-10-22T18:19:43.473Z,20.70
2022-10-22T18:22:11.031Z,25.00
2022-10-22T18:24:38.964Z,22.80
2022-10-22T18:27:06.611Z,21.80
2022-10-22T18:29:34.168Z,22.90
2022-10-22T18:32:03.698Z,20.70
2022-10-22T18:34:33.885Z,22.20
2022-10-22T18:37:01.528Z,21.80
2022-10-22T18:39:29.134Z,20.10
2022-10-22T18:41:56.658Z,24.10
2022-10-22T18:44:24.867Z,24.70
2022-10-22T18:46:52.555Z,19.20
2022-10-22T18:49:20.143Z,24.30
2022-10-22T18:51:52.977Z,22.00
2022-10-22T18:54:23.640Z,20.60
2022-10-22T18:56:55.517Z,19.60
2022-10-22T18:59:27.033Z,26.10
2022-10-22T19:01:57.535Z,27.70
2022-10-22T19:04:30.923Z,20.50
2022-10-22T19:06:58.821Z,18.80
2022-10-22T19:09:26.665Z,24.50
2022-10-22T19:11:54.371Z,26.40
2022-10-22T19:14:22.184Z,16.80
2022-10-22T19:16:49.788Z,16.40
2022-10-22T19:19:19.904Z,16.40
2022-10-22T19:21:48.544Z,16.70
2022-10-22T19:24:18.487Z,17.20
2022-10-22T19:26:47.331Z,16.10
2022-10-22T19:29:18.133Z,16.90
2022-10-22T19:31:46.798Z,16.10
2022-10-22T19:34:14.597Z,16.40
2022-10-22T19:36:42.246Z,14.90
2022-10-22T19:39:09.937Z,17.30
2022-10-22T19:41:37.536Z,18.00
2022-10-22T19:44:05.068Z,17.30
2022-10-22T19:46:32.745Z,19.00
2022-10-22T19:49:02.755Z,18.70
2022-10-22T19:51:33.470Z,17.70
2022-10-22T19:54:04.092Z,15.50
2022-10-22T19:56:33.547Z,15.50
2022-10-22T19:59:02.570Z,29.40
2022-10-22T20:01:32.154Z,17.00
2022-10-22T20:04:01.419Z,20.00
2022-10-22T20:06:29.965Z,19.70
2022-10-22T20:08:58.253Z,17.70
2022-10-22T20:11:28.600Z,17.00
2022-10-22T20:13:57.168Z,17.80
2022-10-22T20:16:29.589Z,16.90
2022-10-22T20:19:03.847Z,16.00
2022-10-22T20:21:32.174Z,17.90
2022-10-22T20:24:00.469Z,16.70
2022-10-22T20:26:29.111Z,16.50
2022-10-22T20:28:57.546Z,19.70
2022-10-22T20:31:28.295Z,20.30
2022-10-22T20:33:58.460Z,20.60
2022-10-22T20:36:27.861Z,18.70
2022-10-22T20:39:00.493Z,10.90
2022-10-22T20:41:29.295Z,24.70
2022-10-22T20:43:57.143Z,17.20
2022-10-22T20:46:29.141Z,15.10
2022-10-22T20:49:01.331Z,15.30
2022-10-22T20:51:29.779Z,15.70
2022-10-22T20:53:57.863Z,14.30
2022-10-22T20:56:26.568Z,16.20
2022-10-22T20:59:04.237Z,16.30
2022-10-22T21:01:38.530Z,15.60
2022-10-22T21:04:07.297Z,14.90
2022-10-22T21:06:38.314Z,14.80
2022-10-22T21:09:07.952Z,16.40
2022-10-22T21:11:36.920Z,15.80
2022-10-22T21:14:06.727Z,15.40
2022-10-22T21:16:34.713Z,15.70
2022-10-22T21:19:02.475Z,15.00
2022-10-22T21:21:30.020Z,13.50
2022-10-22T21:23:57.512Z,14.70
2022-10-22T21:26:25.161Z,15.00
2022-10-22T21:28:52.793Z,15.40
2022-10-22T21:31:25.901Z,15.80
2022-10-22T21:33:54.130Z,15.80
2022-10-22T21:36:23.298Z,15.40
2022-10-22T21:38:52.338Z,15.50
2022-10-22T21:41:22.869Z,16.60
2022-10-22T21:43:51.660Z,16.70
2022-10-22T21:46:22.557Z,17.50
2022-10-22T21:49:01.996Z,16.20
2022-10-22T21:51:32.303Z,16.80
2022-10-22T21:54:00.054Z,14.40
2022-10-22T21:56:32.597Z,16.80
2022-10-22T21:59:01.607Z,14.40
2022-10-22T22:01:29.625Z,15.50
2022-10-22T22:03:57.814Z,16.70
2022-10-22T22:06:30.721Z,16.10
2022-10-22T22:09:03.230Z,18.90
2022-10-22T22:11:31.063Z,17.30
2022-10-22T22:13:58.654Z,16.20
2022-10-22T22:16:29.736Z,14.60
2022-10-22T22:21:32.233Z,14.90
2022-10-22T22:23:59.794Z,14.80
2022-10-22T22:26:30.023Z,14.70
2022-10-22T22:28:59.758Z,14.10
2022-10-22T22:31:30.377Z,14.70
2022-10-22T22:33:59.600Z,13.90
2022-10-22T22:36:27.601Z,14.30
2022-10-22T22:38:56.729Z,15.00
2022-10-22T22:41:24.391Z,15.40
2022-10-22T22:43:52.012Z,15.50
2022-10-22T22:46:19.549Z,13.70
2022-10-22T22:48:49.321Z,13.90
2022-10-22T22:51:17.039Z,12.50
2022-10-22T22:53:44.698Z,14.40
2022-10-22T22:56:21.898Z,16.30
2022-10-22T22:58:50.157Z,15.50
2022-10-22T23:01:19.611Z,14.70
2022-10-22T23:03:59.010Z,13.80
2022-10-22T23:06:29.220Z,14.50
2022-10-22T23:08:57.671Z,14.60
2022-10-22T23:11:26.731Z,13.80
2022-10-22T23:13:57.632Z,14.40
2022-10-22T23:16:27.848Z,13.00
2022-10-22T23:18:56.144Z,13.20
2022-10-22T23:21:29.830Z,13.00
2022-10-22T23:24:00.361Z,14.20
2022-10-22T23:26:33.850Z,12.30
2022-10-22T23:29:03.252Z,13.50
2022-10-22T23:31:30.942Z,14.30
2022-10-22T23:33:58.601Z,13.50
2022-10-22T23:36:26.208Z,13.30
2022-10-22T23:38:54.433Z,13.20
2022-10-22T23:41:22.313Z,12.10
2022-10-22T23:43:50.453Z,13.60
2022-10-22T23:46:18.006Z,16.20
2022-10-22T23:48:45.595Z,14.90
2022-10-22T23:51:16.297Z,14.50
2022-10-22T23:53:44.782Z,16.10
2022-10-22T23:56:18.077Z,13.90
2022-10-22T23:58:45.711Z,13.10
